Time;durP1;ratioP1;P1;durP2;ratioP2;P2;SDS_P1;SDS_P2;PMS_P1;PMS_P2;Temp;Humidity;BMP_temperature;BMP_pressure;BME280_temperature;BME280_humidity;BME280_pressure;Samples;Min_cycle;Max_cycle;Signal;HPM_P1;HPM_P2
2021/08/09 00:01:45;;;;;;;0.40;0.40;;;13.90;99.90;;;;;;5015533;28;20462;-85
2021/08/09 00:04:13;;;;;;;1.43;0.30;;;13.90;99.90;;;;;;5015707;28;20470;-85
2021/08/09 00:06:40;;;;;;;0.40;0.30;;;13.90;99.90;;;;;;5016450;28;20446;-87
2021/08/09 00:09:07;;;;;;;0.50;0.40;;;13.90;99.90;;;;;;5015752;28;20960;-87
2021/08/09 00:11:35;;;;;;;0.40;0.30;;;13.90;99.90;;;;;;5015963;28;20522;-87
2021/08/09 00:14:01;;;;;;;0.37;0.30;;;13.90;99.90;;;;;;5016343;28;20452;-88
2021/08/09 00:16:28;;;;;;;0.80;0.40;;;13.90;99.90;;;;;;5015996;28;20436;-88
2021/08/09 00:18:55;;;;;;;0.87;0.70;;;13.90;99.90;;;;;;5016746;28;20451;-88
2021/08/09 00:21:23;;;;;;;0.43;0.40;;;13.90;99.90;;;;;;5015857;28;20479;-85
2021/08/09 00:23:50;;;;;;;0.70;0.40;;;13.90;99.90;;;;;;5015419;28;20447;-84
2021/08/09 00:26:19;;;;;;;0.80;0.60;;;14.00;99.90;;;;;;5015321;28;20450;-81
2021/08/09 00:28:46;;;;;;;0.40;0.40;;;13.90;99.90;;;;;;5015104;28;20460;-81
2021/08/09 00:31:13;;;;;;;1.43;0.60;;;14.00;99.90;;;;;;5014917;28;20487;-81
2021/08/09 00:33:40;;;;;;;0.40;0.30;;;14.00;99.90;;;;;;5014976;28;20447;-81
2021/08/09 00:36:06;;;;;;;0.60;0.40;;;14.00;99.90;;;;;;5014951;28;20479;-81
2021/08/09 00:38:34;;;;;;;0.40;0.40;;;14.00;99.90;;;;;;5014905;28;20455;-81
2021/08/09 00:41:01;;;;;;;0.50;0.30;;;14.00;99.90;;;;;;5014831;28;20479;-81
2021/08/09 00:43:28;;;;;;;0.57;0.57;;;13.90;99.90;;;;;;5014850;28;20447;-82
2021/08/09 00:45:56;;;;;;;0.47;0.40;;;13.90;99.90;;;;;;5014726;28;20458;-81
2021/08/09 00:48:24;;;;;;;1.53;0.50;;;13.80;99.90;;;;;;5014446;28;20451;-81
2021/08/09 00:50:51;;;;;;;0.60;0.30;;;13.80;99.90;;;;;;5014660;28;20483;-82
2021/08/09 00:53:18;;;;;;;0.50;0.40;;;13.80;99.90;;;;;;5014636;28;20462;-83
2021/08/09 00:55:46;;;;;;;0.73;0.47;;;13.80;99.90;;;;;;5014612;28;20527;-82
2021/08/09 00:58:13;;;;;;;0.40;0.30;;;13.80;99.90;;;;;;5014170;28;20476;-82
2021/08/09 01:00:40;;;;;;;0.40;0.40;;;13.80;99.90;;;;;;5014498;28;20439;-87
2021/08/09 01:03:07;;;;;;;0.83;0.50;;;13.80;99.90;;;;;;5015345;28;20451;-88
2021/08/09 01:05:34;;;;;;;0.80;0.40;;;13.80;99.90;;;;;;5014920;28;20443;-87
2021/08/09 01:08:09;;;;;;;0.40;0.30;;;13.70;99.90;;;;;;5014819;28;20452;-84
2021/08/09 01:10:43;;;;;;;0.30;0.30;;;13.70;99.90;;;;;;5014588;28;20471;-84
2021/08/09 01:13:19;;;;;;;0.40;0.40;;;13.70;99.90;;;;;;5014584;28;20933;-85
2021/08/09 01:15:49;;;;;;;0.30;0.30;;;13.70;99.90;;;;;;5014617;28;20447;-88
2021/08/09 01:18:17;;;;;;;0.30;0.30;;;13.70;99.90;;;;;;5015044;28;20455;-88
2021/08/09 01:20:48;;;;;;;0.30;0.30;;;13.70;99.90;;;;;;5013758;28;20943;-88
2021/08/09 01:23:25;;;;;;;0.50;0.40;;;13.70;99.90;;;;;;5015033;28;20432;-88
2021/08/09 01:25:57;;;;;;;0.70;0.70;;;13.70;99.90;;;;;;5015029;28;20494;-87
2021/08/09 01:28:29;;;;;;;0.40;0.40;;;13.60;99.90;;;;;;5015059;28;20452;-86
2021/08/09 01:30:57;;;;;;;0.43;0.40;;;13.60;99.90;;;;;;5014813;28;21048;-88
2021/08/09 01:33:25;;;;;;;0.40;0.30;;;13.60;99.90;;;;;;5014848;28;20447;-88
2021/08/09 01:35:54;;;;;;;0.30;0.30;;;13.60;99.90;;;;;;5014768;28;20447;-86
2021/08/09 01:38:23;;;;;;;0.40;0.40;;;13.60;99.90;;;;;;5014820;28;20440;-88
2021/08/09 01:40:50;;;;;;;0.40;0.40;;;13.50;99.90;;;;;;5014677;28;20486;-88
2021/08/09 01:43:18;;;;;;;0.50;0.33;;;13.50;99.90;;;;;;5014416;28;20436;-87
2021/08/09 01:45:47;;;;;;;0.40;0.30;;;13.50;99.90;;;;;;5014547;28;20459;-88
2021/08/09 01:48:14;;;;;;;0.30;0.30;;;13.50;99.90;;;;;;5014461;28;20788;-87
2021/08/09 01:50:42;;;;;;;0.83;0.60;;;13.50;99.90;;;;;;5014086;28;20489;-87
2021/08/09 01:53:09;;;;;;;0.50;0.50;;;13.40;99.90;;;;;;5014563;28;20440;-88
2021/08/09 01:55:36;;;;;;;0.40;0.40;;;13.40;99.90;;;;;;5014516;28;20452;-87
2021/08/09 01:58:03;;;;;;;0.30;0.30;;;13.40;99.90;;;;;;5013431;28;20483;-83
2021/08/09 02:00:30;;;;;;;0.80;0.40;;;13.40;99.90;;;;;;5013531;28;20451;-83
2021/08/09 02:02:59;;;;;;;1.17;0.57;;;13.40;99.90;;;;;;5013614;28;20455;-82
2021/08/09 02:05:26;;;;;;;0.40;0.40;;;13.40;99.90;;;;;;5013288;28;20450;-83
2021/08/09 02:07:55;;;;;;;0.40;0.30;;;13.40;99.90;;;;;;5013620;28;20527;-82
2021/08/09 02:10:23;;;;;;;0.50;0.40;;;13.40;99.90;;;;;;5013431;28;20487;-82
2021/08/09 02:12:56;;;;;;;0.30;0.30;;;13.40;99.90;;;;;;5013237;28;20458;-83
2021/08/09 02:15:29;;;;;;;0.40;0.40;;;13.40;99.90;;;;;;5013271;28;20416;-82
2021/08/09 02:18:04;;;;;;;0.97;0.50;;;13.40;99.90;;;;;;5013523;28;20428;-83
2021/08/09 02:20:34;;;;;;;0.40;0.40;;;13.40;99.90;;;;;;5013431;28;20427;-81
2021/08/09 02:23:04;;;;;;;0.50;0.30;;;13.40;99.90;;;;;;5013295;28;20456;-81
2021/08/09 02:25:34;;;;;;;0.60;0.40;;;13.40;99.90;;;;;;5013160;28;20431;-81
2021/08/09 02:28:08;;;;;;;0.40;0.40;;;13.30;99.90;;;;;;5013679;28;20555;-81
2021/08/09 02:30:37;;;;;;;0.50;0.40;;;13.30;99.90;;;;;;5012949;28;21000;-81
2021/08/09 02:33:06;;;;;;;0.70;0.40;;;13.30;99.90;;;;;;5016585;28;20462;-88
2021/08/09 02:35:33;;;;;;;0.40;0.40;;;13.30;99.90;;;;;;5018180;28;20814;-88
2021/08/09 02:38:01;;;;;;;0.50;0.50;;;13.20;99.90;;;;;;5018139;28;20456;-88
2021/08/09 02:40:28;;;;;;;0.60;0.40;;;13.20;99.90;;;;;;5017881;28;20443;-88
2021/08/09 02:42:56;;;;;;;1.27;0.70;;;13.20;99.90;;;;;;5018002;28;20435;-88
2021/08/09 02:45:23;;;;;;;0.40;0.40;;;13.20;99.90;;;;;;5017897;28;20440;-87
2021/08/09 02:47:52;;;;;;;0.40;0.30;;;13.20;99.90;;;;;;5017845;28;20447;-81
2021/08/09 02:50:20;;;;;;;0.30;0.30;;;13.20;99.90;;;;;;5016888;28;20487;-81
2021/08/09 02:52:48;;;;;;;0.40;0.40;;;13.10;99.90;;;;;;5016818;28;20459;-81
2021/08/09 02:55:17;;;;;;;0.60;0.40;;;13.10;99.90;;;;;;5016865;28;20455;-81
2021/08/09 02:57:47;;;;;;;0.50;0.50;;;13.10;99.90;;;;;;5016327;28;20827;-82
2021/08/09 03:00:15;;;;;;;0.40;0.30;;;13.10;99.90;;;;;;5016611;28;20459;-82
2021/08/09 03:02:43;;;;;;;0.30;0.30;;;13.00;99.90;;;;;;5016666;28;20479;-82
2021/08/09 03:05:13;;;;;;;0.30;0.30;;;12.90;99.90;;;;;;5016670;28;20456;-82
2021/08/09 03:07:44;;;;;;;0.40;0.37;;;12.90;99.90;;;;;;5016878;28;20443;-82
2021/08/09 03:10:12;;;;;;;0.40;0.40;;;12.80;99.90;;;;;;5016318;28;20423;-82
2021/08/09 03:12:39;;;;;;;0.40;0.30;;;12.80;99.90;;;;;;5016302;28;20810;-82
2021/08/09 03:15:07;;;;;;;0.50;0.30;;;12.70;99.90;;;;;;5016462;28;20443;-82
2021/08/09 03:17:34;;;;;;;0.33;0.30;;;12.70;99.90;;;;;;5016142;28;20970;-82
2021/08/09 03:20:00;;;;;;;0.33;0.30;;;12.70;99.90;;;;;;5016153;28;20804;-82
2021/08/09 03:22:27;;;;;;;0.30;0.30;;;12.70;99.90;;;;;;5016250;28;20467;-82
2021/08/09 03:24:55;;;;;;;0.40;0.30;;;12.70;99.90;;;;;;5016509;28;20451;-84
2021/08/09 03:27:22;;;;;;;0.40;0.30;;;12.70;99.90;;;;;;5016246;28;20467;-81
2021/08/09 03:29:49;;;;;;;0.40;0.30;;;12.80;99.90;;;;;;5016649;28;20451;-85
2021/08/09 03:32:15;;;;;;;0.53;0.40;;;12.70;99.90;;;;;;5016094;28;21003;-85
2021/08/09 03:34:42;;;;;;;0.40;0.30;;;12.70;99.90;;;;;;5016530;28;20451;-85
2021/08/09 03:37:09;;;;;;;0.40;0.30;;;12.70;99.90;;;;;;5016545;28;20448;-85
2021/08/09 03:39:35;;;;;;;0.50;0.30;;;12.80;99.90;;;;;;5016654;28;20462;-85
2021/08/09 03:42:04;;;;;;;0.50;0.40;;;12.70;99.90;;;;;;5016456;28;20483;-85
2021/08/09 03:44:31;;;;;;;1.30;0.80;;;12.80;99.90;;;;;;5015309;28;20447;-85
2021/08/09 03:46:57;;;;;;;0.30;0.30;;;12.80;99.90;;;;;;5016291;28;20451;-85
2021/08/09 03:49:24;;;;;;;0.77;0.40;;;12.80;99.90;;;;;;5016316;28;20459;-85
2021/08/09 03:51:51;;;;;;;0.50;0.40;;;12.80;99.90;;;;;;5015857;28;20510;-85
2021/08/09 03:54:18;;;;;;;0.40;0.33;;;12.80;99.90;;;;;;5016146;28;20454;-85
2021/08/09 03:56:44;;;;;;;0.60;0.60;;;12.80;99.90;;;;;;5015961;28;20483;-85
2021/08/09 03:59:12;;;;;;;0.40;0.40;;;12.70;99.90;;;;;;5016059;28;20456;-85
2021/08/09 04:01:40;;;;;;;0.80;0.43;;;12.70;99.90;;;;;;5016166;28;20482;-85
2021/08/09 04:04:08;;;;;;;0.43;0.43;;;12.70;99.90;;;;;;5016114;28;20447;-85
2021/08/09 04:06:35;;;;;;;1.33;0.50;;;12.70;99.90;;;;;;5015992;28;20448;-85
2021/08/09 04:09:02;;;;;;;0.60;0.43;;;12.70;99.90;;;;;;5015728;28;20928;-85
2021/08/09 04:11:29;;;;;;;0.40;0.40;;;12.70;99.90;;;;;;5015756;28;20487;-85
2021/08/09 04:13:57;;;;;;;0.60;0.50;;;12.70;99.90;;;;;;5015642;28;20946;-81
2021/08/09 04:16:25;;;;;;;0.40;0.30;;;12.70;99.90;;;;;;5015622;28;20440;-81
2021/08/09 04:18:52;;;;;;;0.40;0.30;;;12.70;99.90;;;;;;5015302;28;20456;-81
2021/08/09 04:21:18;;;;;;;0.80;0.67;;;12.80;99.90;;;;;;5015164;28;20459;-81
2021/08/09 04:23:46;;;;;;;0.50;0.40;;;12.80;99.90;;;;;;5015171;28;20462;-81
2021/08/09 04:26:13;;;;;;;0.40;0.30;;;12.80;99.90;;;;;;5015134;28;20498;-81
2021/08/09 04:28:40;;;;;;;0.30;0.20;;;12.80;99.90;;;;;;5015120;28;20452;-83
2021/08/09 04:31:06;;;;;;;0.60;0.30;;;12.80;99.90;;;;;;5015465;28;20499;-90
2021/08/09 04:33:41;;;;;;;0.50;0.30;;;12.90;99.90;;;;;;5015948;28;20442;-91
2021/08/09 04:36:08;;;;;;;0.30;0.30;;;12.90;99.90;;;;;;5016103;28;20431;-90
2021/08/09 04:38:34;;;;;;;0.93;0.30;;;12.90;99.90;;;;;;5015706;28;20451;-88
2021/08/09 04:41:06;;;;;;;0.30;0.30;;;13.00;99.90;;;;;;5014984;28;20460;-87
2021/08/09 04:43:33;;;;;;;0.30;0.30;;;13.00;99.90;;;;;;5014995;28;20912;-88
2021/08/09 04:46:00;;;;;;;1.27;0.40;;;13.10;99.90;;;;;;5015108;28;20447;-85
2021/08/09 04:48:27;;;;;;;0.50;0.30;;;13.10;99.90;;;;;;5015147;28;20444;-84
2021/08/09 04:50:55;;;;;;;1.20;0.47;;;13.10;99.90;;;;;;5014763;28;20463;-85
2021/08/09 04:53:22;;;;;;;0.40;0.30;;;13.10;99.90;;;;;;5015091;28;20452;-85
2021/08/09 04:55:48;;;;;;;0.57;0.40;;;13.20;99.90;;;;;;5014764;28;20454;-85
2021/08/09 04:58:15;;;;;;;0.30;0.30;;;13.10;99.90;;;;;;5014501;28;20479;-85
2021/08/09 05:00:42;;;;;;;0.30;0.20;;;13.10;99.90;;;;;;5014670;28;20455;-82
2021/08/09 05:03:09;;;;;;;0.40;0.40;;;13.10;99.90;;;;;;5014501;28;20444;-82
2021/08/09 05:05:35;;;;;;;0.60;0.50;;;13.20;99.90;;;;;;5014426;28;20454;-82
2021/08/09 05:08:04;;;;;;;0.40;0.40;;;13.20;99.90;;;;;;5014382;28;20464;-82
2021/08/09 05:10:31;;;;;;;0.50;0.37;;;13.20;99.90;;;;;;5014343;28;20440;-82
2021/08/09 05:12:57;;;;;;;0.40;0.30;;;13.20;99.90;;;;;;5014230;28;20487;-82
2021/08/09 05:15:26;;;;;;;0.50;0.50;;;13.20;99.90;;;;;;5014019;28;20446;-81
2021/08/09 05:17:53;;;;;;;0.40;0.40;;;13.20;99.90;;;;;;5014523;28;20451;-81
2021/08/09 05:20:20;;;;;;;0.50;0.40;;;13.20;99.90;;;;;;5013913;28;20431;-82
2021/08/09 05:22:46;;;;;;;0.30;0.30;;;13.20;99.90;;;;;;5019499;28;20478;-85
2021/08/09 05:25:15;;;;;;;0.40;0.37;;;13.20;99.90;;;;;;5014784;28;20951;-85
2021/08/09 05:27:43;;;;;;;0.50;0.40;;;13.20;99.90;;;;;;5014135;28;20459;-82
2021/08/09 05:30:11;;;;;;;0.70;0.50;;;13.30;99.90;;;;;;5014546;28;20531;-87
2021/08/09 05:32:38;;;;;;;1.03;0.30;;;13.30;99.90;;;;;;5014192;28;20495;-82
2021/08/09 05:35:08;;;;;;;0.30;0.30;;;13.30;99.90;;;;;;5014305;28;20962;-82
2021/08/09 05:37:35;;;;;;;0.30;0.30;;;13.30;99.90;;;;;;5013825;28;20943;-87
2021/08/09 05:40:04;;;;;;;0.70;0.70;;;13.30;99.90;;;;;;5014972;28;20440;-88
2021/08/09 05:42:32;;;;;;;0.70;0.50;;;13.40;99.90;;;;;;5014822;28;20470;-88
2021/08/09 05:44:59;;;;;;;0.30;0.30;;;13.40;99.90;;;;;;5014882;28;20451;-88
2021/08/09 05:47:26;;;;;;;0.40;0.30;;;13.40;99.90;;;;;;5014761;28;20470;-89
2021/08/09 05:49:53;;;;;;;0.30;0.30;;;13.50;99.90;;;;;;5014634;28;20436;-88
2021/08/09 05:52:21;;;;;;;0.70;0.40;;;13.50;99.90;;;;;;5014026;28;20491;-88
2021/08/09 05:54:48;;;;;;;0.70;0.50;;;13.60;99.90;;;;;;5014828;28;20448;-88
2021/08/09 05:57:14;;;;;;;0.50;0.40;;;13.70;99.90;;;;;;5013986;28;20480;-86
2021/08/09 05:59:44;;;;;;;0.40;0.40;;;13.70;99.90;;;;;;5014086;28;20431;-82
2021/08/09 06:02:11;;;;;;;0.50;0.40;;;13.80;99.90;;;;;;5013647;28;20474;-81
2021/08/09 06:04:38;;;;;;;0.30;0.20;;;13.80;99.90;;;;;;5014416;28;20462;-85
2021/08/09 06:07:04;;;;;;;0.70;0.40;;;13.90;99.90;;;;;;5012717;28;20451;-85
2021/08/09 06:09:31;;;;;;;0.40;0.30;;;14.10;99.90;;;;;;5013300;28;20821;-84
2021/08/09 06:11:58;;;;;;;0.50;0.40;;;14.20;99.90;;;;;;5013412;28;20491;-84
2021/08/09 06:14:24;;;;;;;0.40;0.40;;;14.40;99.90;;;;;;5013722;28;20629;-86
2021/08/09 06:16:53;;;;;;;0.30;0.30;;;14.40;99.90;;;;;;5013944;28;20452;-86
2021/08/09 06:19:19;;;;;;;0.53;0.53;;;14.50;99.90;;;;;;5013839;28;20440;-88
2021/08/09 06:21:46;;;;;;;0.70;0.70;;;14.60;99.90;;;;;;5013861;28;20474;-88
2021/08/09 06:24:13;;;;;;;0.30;0.30;;;14.70;99.90;;;;;;5014184;28;20448;-88
2021/08/09 06:26:39;;;;;;;0.40;0.40;;;14.70;99.90;;;;;;5013904;28;20454;-87
2021/08/09 06:29:06;;;;;;;0.30;0.30;;;14.90;99.90;;;;;;5014205;28;20432;-86
2021/08/09 06:31:33;;;;;;;0.40;0.30;;;15.00;99.90;;;;;;5013337;28;20479;-85
2021/08/09 06:34:01;;;;;;;0.60;0.30;;;15.10;99.90;;;;;;5013543;28;20432;-86
2021/08/09 06:36:28;;;;;;;0.40;0.30;;;15.20;99.90;;;;;;5013594;28;20440;-85
2021/08/09 06:38:55;;;;;;;1.13;0.40;;;15.30;99.90;;;;;;5013572;28;20638;-86
2021/08/09 06:41:22;;;;;;;0.40;0.40;;;15.30;99.90;;;;;;5013161;28;20463;-85
2021/08/09 06:43:49;;;;;;;0.40;0.40;;;15.40;99.90;;;;;;5013471;28;20460;-87
2021/08/09 06:46:15;;;;;;;0.40;0.30;;;15.60;99.90;;;;;;5013467;28;20957;-87
2021/08/09 06:48:43;;;;;;;0.40;0.40;;;15.60;99.90;;;;;;5013593;28;20785;-87
2021/08/09 06:51:11;;;;;;;0.70;0.40;;;15.70;99.90;;;;;;5013156;28;20471;-84
2021/08/09 06:53:38;;;;;;;0.40;0.30;;;15.80;99.90;;;;;;5012865;28;20489;-84
2021/08/09 06:56:05;;;;;;;0.50;0.40;;;15.90;99.90;;;;;;5012901;28;20869;-84
2021/08/09 06:58:32;;;;;;;0.30;0.30;;;16.00;99.90;;;;;;5012734;28;20479;-84
2021/08/09 07:00:58;;;;;;;3.70;0.43;;;16.20;99.90;;;;;;5012842;28;20463;-84
2021/08/09 07:03:25;;;;;;;0.50;0.37;;;16.30;99.90;;;;;;5013752;28;20939;-84
2021/08/09 07:05:52;;;;;;;0.77;0.30;;;16.40;99.90;;;;;;5013066;28;20451;-84
2021/08/09 07:08:20;;;;;;;0.30;0.30;;;16.60;99.90;;;;;;5012769;28;20450;-84
2021/08/09 07:10:47;;;;;;;0.40;0.30;;;16.60;99.90;;;;;;5012904;28;20482;-84
2021/08/09 07:13:14;;;;;;;0.50;0.40;;;16.70;99.90;;;;;;5012624;28;20537;-84
2021/08/09 07:15:41;;;;;;;0.50;0.40;;;16.80;99.90;;;;;;5012928;28;20450;-84
2021/08/09 07:18:07;;;;;;;0.67;0.50;;;17.00;99.90;;;;;;5012632;28;20435;-83
2021/08/09 07:20:34;;;;;;;0.37;0.37;;;17.10;99.90;;;;;;5015528;28;20454;-83
2021/08/09 07:23:01;;;;;;;0.30;0.30;;;17.30;99.90;;;;;;5016375;28;20470;-83
2021/08/09 07:25:30;;;;;;;0.60;0.40;;;17.40;99.90;;;;;;5016057;28;20440;-83
2021/08/09 07:27:56;;;;;;;0.40;0.30;;;17.60;99.90;;;;;;5016240;28;20459;-84
2021/08/09 07:30:23;;;;;;;0.30;0.30;;;17.70;99.90;;;;;;5016174;28;20451;-83
2021/08/09 07:32:50;;;;;;;0.60;0.40;;;17.80;99.90;;;;;;5016047;28;20491;-83
2021/08/09 07:35:17;;;;;;;0.70;0.40;;;18.00;99.90;;;;;;5016937;28;20447;-82
2021/08/09 07:37:43;;;;;;;0.40;0.40;;;18.10;99.90;;;;;;5015863;28;20442;-84
2021/08/09 07:40:12;;;;;;;0.50;0.50;;;18.30;99.90;;;;;;5015967;28;20459;-85
2021/08/09 07:42:40;;;;;;;2.50;0.43;;;18.40;99.90;;;;;;5015976;28;20474;-85
2021/08/09 07:45:08;;;;;;;0.60;0.33;;;18.50;99.90;;;;;;5016473;28;20456;-85
2021/08/09 07:47:34;;;;;;;0.50;0.50;;;18.50;99.90;;;;;;5015874;28;20440;-85
2021/08/09 07:52:43;;;;;;;0.40;0.40;;;18.90;99.90;;;;;;5014243;28;20855;-85
2021/08/09 07:55:10;;;;;;;3.33;0.37;;;19.10;99.90;;;;;;5016092;28;20919;-88
2021/08/09 07:57:48;;;;;;;0.40;0.40;;;19.20;99.90;;;;;;5016343;28;20986;-87
2021/08/09 08:00:19;;;;;;;0.93;0.50;;;19.40;99.90;;;;;;5016650;28;20443;-89
2021/08/09 08:02:48;;;;;;;0.50;0.50;;;19.70;99.90;;;;;;5016339;28;20467;-87
2021/08/09 08:05:18;;;;;;;0.30;0.30;;;19.80;99.90;;;;;;5016322;28;20420;-86
2021/08/09 08:07:47;;;;;;;0.40;0.37;;;19.90;99.90;;;;;;5015692;28;20435;-88
2021/08/09 08:10:13;;;;;;;0.40;0.30;;;20.00;99.90;;;;;;5015777;28;20451;-87
2021/08/09 08:12:58;;;;;;;0.60;0.50;;;20.10;99.90;;;;;;5015839;28;20490;-86
2021/08/09 08:15:29;;;;;;;0.50;0.40;;;20.20;99.90;;;;;;5016158;28;20443;-86
2021/08/09 08:17:55;;;;;;;0.50;0.40;;;20.20;99.90;;;;;;5015731;28;20941;-87
2021/08/09 08:20:26;;;;;;;0.30;0.30;;;20.20;99.90;;;;;;5015630;28;20435;-87
2021/08/09 08:22:54;;;;;;;0.70;0.40;;;20.20;99.90;;;;;;5015923;28;20438;-87
2021/08/09 08:25:21;;;;;;;0.33;0.33;;;20.30;99.90;;;;;;5016329;28;20824;-87
2021/08/09 08:27:48;;;;;;;0.40;0.30;;;20.30;99.90;;;;;;5015440;28;20443;-87
2021/08/09 08:30:19;;;;;;;0.40;0.40;;;20.50;99.90;;;;;;5015083;28;20442;-89
2021/08/09 08:32:52;;;;;;;0.47;0.47;;;20.50;99.90;;;;;;5015450;28;20494;-88
2021/08/09 08:35:20;;;;;;;0.57;0.40;;;20.60;99.90;;;;;;5015831;28;20458;-91
2021/08/09 08:37:47;;;;;;;0.40;0.30;;;20.70;99.90;;;;;;5015429;28;20443;-87
2021/08/09 08:40:14;;;;;;;1.67;0.40;;;20.70;99.90;;;;;;5015907;28;20451;-90
2021/08/09 08:42:41;;;;;;;0.40;0.40;;;20.80;99.90;;;;;;5015419;28;20463;-79
2021/08/09 08:45:09;;;;;;;0.30;0.30;;;20.80;99.90;;;;;;5014559;28;20451;-82
2021/08/09 08:47:38;;;;;;;0.40;0.30;;;20.80;99.90;;;;;;5014500;28;20445;-86
2021/08/09 08:50:06;;;;;;;1.00;0.50;;;20.80;99.90;;;;;;5014666;28;20447;-85
2021/08/09 08:52:33;;;;;;;0.30;0.30;;;20.90;99.90;;;;;;5014263;28;20550;-81
2021/08/09 08:54:59;;;;;;;0.40;0.40;;;20.90;99.90;;;;;;5014413;28;20941;-81
2021/08/09 08:57:26;;;;;;;0.70;0.40;;;21.10;99.90;;;;;;5014719;28;20474;-81
2021/08/09 08:59:53;;;;;;;0.40;0.37;;;21.30;99.90;;;;;;5014604;28;20454;-83
2021/08/09 09:02:33;;;;;;;0.40;0.33;;;21.50;99.90;;;;;;5014547;28;20471;-86
2021/08/09 09:05:13;;;;;;;0.40;0.30;;;21.50;99.90;;;;;;5014799;28;20467;-86
2021/08/09 09:07:42;;;;;;;0.37;0.33;;;21.60;99.90;;;;;;5014995;28;20443;-87
2021/08/09 09:10:25;;;;;;;0.80;0.50;;;21.70;99.90;;;;;;5015561;28;20443;-86
2021/08/09 09:13:14;;;;;;;0.30;0.30;;;22.00;99.90;;;;;;5013096;28;20990;-86
2021/08/09 09:16:06;;;;;;;0.87;0.50;;;22.10;99.90;;;;;;5015153;28;20442;-84
2021/08/09 09:18:48;;;;;;;2.10;0.50;;;22.20;99.90;;;;;;5000715;28;20439;-86
2021/08/09 09:21:28;;;;;;;0.43;0.43;;;22.30;99.90;;;;;;5014457;28;20510;-87
2021/08/09 09:24:06;;;;;;;0.40;0.30;;;22.50;99.90;;;;;;5014827;28;20258;-87
2021/08/09 09:26:33;;;;;;;0.40;0.40;;;22.50;99.90;;;;;;5014737;28;20180;-87
2021/08/09 09:29:07;;;;;;;0.50;0.40;;;22.70;99.90;;;;;;5014630;28;20185;-87
2021/08/09 09:31:34;;;;;;;0.50;0.30;;;22.70;99.90;;;;;;5014186;28;20225;-87
2021/08/09 09:34:04;;;;;;;0.40;0.40;;;22.60;99.90;;;;;;5014079;28;20680;-87
2021/08/09 09:36:48;;;;;;;0.70;0.40;;;22.70;99.90;;;;;;5014502;28;20185;-87
2021/08/09 09:39:32;;;;;;;0.40;0.35;;;22.80;99.90;;;;;;5014445;28;20278;-87
2021/08/09 09:42:02;;;;;;;0.43;0.43;;;22.90;99.90;;;;;;5013158;28;20590;-87
2021/08/09 09:44:31;;;;;;;0.40;0.40;;;22.90;99.90;;;;;;5014158;28;20189;-87
2021/08/09 09:47:23;;;;;;;3.65;0.47;;;22.80;99.90;;;;;;5014288;28;20192;-87
2021/08/09 09:49:52;;;;;;;0.40;0.33;;;22.70;99.90;;;;;;5014187;28;20196;-86
2021/08/09 09:52:34;;;;;;;0.80;0.40;;;22.60;99.90;;;;;;5013783;28;20231;-86
2021/08/09 09:55:04;;;;;;;0.40;0.40;;;22.60;99.90;;;;;;5013840;28;20191;-81
2021/08/09 09:57:37;;;;;;;0.40;0.40;;;22.70;99.90;;;;;;5013879;28;20770;-86
2021/08/09 10:00:09;;;;;;;0.40;0.40;;;22.70;99.90;;;;;;5013354;28;20204;-85
2021/08/09 10:03:19;;;;;;;0.60;0.60;;;22.70;99.90;;;;;;5013362;28;20762;-86
2021/08/09 10:05:47;;;;;;;0.50;0.40;;;22.70;99.90;;;;;;5012936;28;20208;-85
2021/08/09 10:08:41;;;;;;;0.50;0.50;;;22.60;99.90;;;;;;5013994;28;20207;-86
2021/08/09 10:11:09;;;;;;;0.40;0.40;;;22.50;99.90;;;;;;5013662;28;20238;-86
2021/08/09 10:13:38;;;;;;;0.40;0.38;;;22.50;99.90;;;;;;5013056;28;20229;-84
2021/08/09 10:16:07;;;;;;;0.40;0.37;;;22.70;99.90;;;;;;5013892;28;20656;-85
2021/08/09 10:18:37;;;;;;;0.40;0.40;;;22.80;99.90;;;;;;5014070;28;20610;-86
2021/08/09 10:21:05;;;;;;;0.50;0.47;;;22.90;99.90;;;;;;5013643;28;20224;-86
2021/08/09 10:24:04;;;;;;;0.30;0.30;;;22.90;99.90;;;;;;5013716;28;20255;-85
2021/08/09 10:26:49;;;;;;;0.40;0.40;;;22.80;99.90;;;;;;5013128;28;20204;-85
2021/08/09 10:29:22;;;;;;;0.40;0.37;;;22.80;99.90;;;;;;5013829;28;20203;-86
2021/08/09 10:31:51;;;;;;;0.40;0.30;;;22.70;99.90;;;;;;5009005;28;20234;-84
2021/08/09 10:34:38;;;;;;;0.40;0.40;;;23.00;99.90;;;;;;5013263;28;20223;-84
2021/08/09 10:37:10;;;;;;;0.50;0.50;;;23.40;99.50;;;;;;5013541;28;20188;-86
2021/08/09 10:40:03;;;;;;;2.42;0.50;;;23.90;99.10;;;;;;5013211;28;20232;-84
2021/08/09 10:42:31;;;;;;;0.40;0.40;;;24.00;98.90;;;;;;5014249;28;20238;-88
2021/08/09 10:45:08;;;;;;;0.68;0.50;;;23.90;98.40;;;;;;5014269;28;20200;-89
2021/08/09 10:47:56;;;;;;;0.40;0.30;;;23.90;98.30;;;;;;5013487;28;20633;-88
2021/08/09 10:50:53;;;;;;;0.32;0.32;;;24.00;98.90;;;;;;5013633;28;20299;-86
2021/08/09 10:53:46;;;;;;;0.60;0.60;;;24.30;98.20;;;;;;5013783;28;20255;-86
2021/08/09 10:56:48;;;;;;;0.40;0.40;;;24.70;96.60;;;;;;5017377;28;20200;-86
2021/08/09 10:59:43;;;;;;;0.50;0.40;;;25.10;96.60;;;;;;5017214;28;20204;-87
2021/08/09 11:02:18;;;;;;;1.58;0.40;;;25.60;94.70;;;;;;5010352;28;20227;-86
2021/08/09 11:05:02;;;;;;;0.85;0.50;;;26.10;94.80;;;;;;5017730;28;20191;-86
2021/08/09 11:07:31;;;;;;;0.30;0.30;;;26.40;92.20;;;;;;5015659;28;20207;-88
2021/08/09 11:09:58;;;;;;;0.40;0.40;;;26.60;93.50;;;;;;5017118;28;20204;-85
2021/08/09 11:12:32;;;;;;;0.40;0.40;;;26.50;91.20;;;;;;5016697;28;20224;-85
2021/08/09 11:15:26;;;;;;;0.40;0.30;;;26.20;91.30;;;;;;5016609;28;20216;-86
2021/08/09 11:21:02;;;;;;;0.40;0.40;;;25.10;91.80;;;;;;5016267;28;20695;-86
2021/08/09 11:23:37;;;;;;;0.70;0.50;;;24.70;93.20;;;;;;5016494;28;20251;-88
2021/08/09 11:26:06;;;;;;;0.73;0.50;;;24.40;92.70;;;;;;5017280;28;20208;-88
2021/08/09 11:32:12;;;;;;;0.55;0.40;;;24.20;93.60;;;;;;5004884;28;20216;-89
2021/08/09 11:35:00;;;;;;;0.50;0.50;;;24.40;94.30;;;;;;5017026;28;20231;-88
2021/08/09 11:37:58;;;;;;;0.40;0.40;;;24.40;93.80;;;;;;5016944;28;20215;-87
2021/08/09 11:40:45;;;;;;;0.43;0.35;;;24.20;94.20;;;;;;5016425;28;20227;-87
2021/08/09 11:43:15;;;;;;;0.50;0.50;;;24.00;95.90;;;;;;5016928;28;20196;-87
2021/08/09 11:45:43;;;;;;;0.82;0.40;;;24.00;95.80;;;;;;5016714;28;20204;-88
2021/08/09 11:48:11;;;;;;;0.90;0.50;;;24.00;95.60;;;;;;5016222;28;20181;-87
2021/08/09 11:50:40;;;;;;;0.40;0.32;;;23.90;94.40;;;;;;5016060;28;20231;-85
2021/08/09 11:53:21;;;;;;;0.43;0.43;;;23.80;95.30;;;;;;5015595;28;20651;-85
2021/08/09 11:55:55;;;;;;;0.40;0.40;;;23.60;95.50;;;;;;5014888;28;20216;-85
2021/08/09 11:58:38;;;;;;;0.40;0.40;;;23.50;95.70;;;;;;5015203;28;20235;-84
2021/08/09 12:01:05;;;;;;;0.57;0.40;;;23.50;95.90;;;;;;5015215;28;20235;-85
2021/08/09 12:03:34;;;;;;;0.52;0.50;;;23.40;96.00;;;;;;5015132;28;20250;-85
2021/08/09 12:06:21;;;;;;;0.90;0.50;;;23.40;95.20;;;;;;5014702;28;20674;-85
2021/08/09 12:09:24;;;;;;;0.50;0.40;;;23.50;93.90;;;;;;5015246;28;20306;-85
2021/08/09 12:11:58;;;;;;;0.40;0.30;;;23.60;94.10;;;;;;5015217;28;20226;-85
2021/08/09 12:14:25;;;;;;;1.60;0.50;;;23.70;93.30;;;;;;5015343;28;20255;-85
2021/08/09 12:16:56;;;;;;;0.47;0.47;;;23.70;91.00;;;;;;5016192;28;20208;-86
2021/08/09 12:19:38;;;;;;;0.40;0.40;;;23.60;91.10;;;;;;5015292;28;20208;-86
2021/08/09 12:22:11;;;;;;;1.13;0.50;;;23.50;93.10;;;;;;5015360;28;20227;-87
2021/08/09 12:24:38;;;;;;;0.40;0.40;;;23.20;91.90;;;;;;5015364;28;20568;-85
2021/08/09 12:27:18;;;;;;;0.53;0.40;;;23.10;93.60;;;;;;5015254;28;20208;-85
2021/08/09 12:30:02;;;;;;;0.60;0.40;;;22.90;94.30;;;;;;5015199;28;20196;-86
2021/08/09 12:32:30;;;;;;;0.50;0.50;;;22.80;94.30;;;;;;5015074;28;20278;-86
2021/08/09 12:34:59;;;;;;;0.37;0.30;;;22.80;94.60;;;;;;5015825;28;20208;-85
2021/08/09 12:37:26;;;;;;;0.50;0.50;;;22.80;94.80;;;;;;5014769;28;20187;-85
2021/08/09 12:40:20;;;;;;;2.05;0.70;;;22.70;93.70;;;;;;5014842;28;20242;-85
2021/08/09 12:43:03;;;;;;;0.40;0.37;;;22.70;94.70;;;;;;5014688;28;20650;-85
2021/08/09 12:45:30;;;;;;;0.50;0.30;;;22.70;96.90;;;;;;5015499;28;20192;-85
2021/08/09 12:48:03;;;;;;;0.60;0.50;;;22.60;96.10;;;;;;5014668;28;20192;-85
2021/08/09 12:50:32;;;;;;;0.40;0.40;;;22.60;94.50;;;;;;5014582;28;20193;-84
2021/08/09 12:53:09;;;;;;;0.40;0.40;;;22.60;95.80;;;;;;5014095;28;20462;-88
2021/08/09 12:55:57;;;;;;;0.50;0.40;;;22.70;95.10;;;;;;5015260;28;20204;-89
2021/08/09 12:58:25;;;;;;;0.40;0.40;;;22.70;95.00;;;;;;5013130;28;20236;-88
2021/08/09 13:00:58;;;;;;;4.90;0.40;;;22.80;94.20;;;;;;5015585;28;20227;-89
2021/08/09 13:03:28;;;;;;;0.50;0.50;;;22.70;95.10;;;;;;5015534;28;20709;-89
2021/08/09 13:05:56;;;;;;;0.40;0.40;;;22.70;95.70;;;;;;5014933;28;20923;-88
2021/08/09 13:08:35;;;;;;;0.40;0.30;;;22.60;96.50;;;;;;5015411;28;20446;-89
2021/08/09 13:11:23;;;;;;;0.60;0.40;;;22.70;95.40;;;;;;5011823;28;20471;-84
2021/08/09 13:13:52;;;;;;;0.93;0.40;;;22.80;94.60;;;;;;5014556;28;20475;-89
2021/08/09 13:19:21;;;;;;;0.40;0.40;;;23.00;94.90;;;;;;5012341;28;20192;-87